Terminal Aerodrome Forecast
Issued by NWS Louisville, KY

Home | Current Version | Previous Version | Text Only | Print | Product List | Glossary On
Versions: 1 2 3 4 5 6 7 8 9 10 11 12 13 14 15 16 17 18 19
000
FTUS43 KLMK 272021 AAA
TAFLEX
TAF AMD
KLEX 272021Z 2720/2818 19008KT P6SM VCSH SCT040 BKN100
     FM272100 19008KT P6SM VCTS SCT040CB BKN100
      TEMPO 2722/2802 4SM TSRA OVC040CB
     FM280300 17005KT P6SM SHRA OVC050
     FM280600 17006KT 6SM -SHRA OVC050
     FM280900 VRB05KT P6SM VCSH OVC015=

USA.gov is the U.S. government's official web portal to all federal, state and local government web resources and services.